sensor_id;sensor_type;location;lat;lon;timestamp;temperature;humidity
75368;DHT22;63954;51.948;5.888;2022-10-31T00:00:56;13.85;78.53
75368;DHT22;63954;51.948;5.888;2022-10-31T00:03:23;13.84;78.50
75368;DHT22;63954;51.948;5.888;2022-10-31T00:05:52;13.80;78.48
75368;DHT22;63954;51.948;5.888;2022-10-31T00:08:19;13.76;78.48
75368;DHT22;63954;51.948;5.888;2022-10-31T00:10:46;13.70;78.52
75368;DHT22;63954;51.948;5.888;2022-10-31T00:13:15;13.67;78.44
75368;DHT22;63954;51.948;5.888;2022-10-31T00:15:42;13.65;78.46
75368;DHT22;63954;51.948;5.888;2022-10-31T00:18:10;13.60;78.45
75368;DHT22;63954;51.948;5.888;2022-10-31T00:20:37;13.56;78.46
75368;DHT22;63954;51.948;5.888;2022-10-31T00:23:05;13.53;78.51
75368;DHT22;63954;51.948;5.888;2022-10-31T00:25:34;13.48;78.53
75368;DHT22;63954;51.948;5.888;2022-10-31T00:28:01;13.46;78.56
75368;DHT22;63954;51.948;5.888;2022-10-31T00:30:30;13.44;78.55
75368;DHT22;63954;51.948;5.888;2022-10-31T00:32:57;13.41;78.55
75368;DHT22;63954;51.948;5.888;2022-10-31T00:35:24;13.40;78.59
75368;DHT22;63954;51.948;5.888;2022-10-31T00:37:52;13.37;78.58
75368;DHT22;63954;51.948;5.888;2022-10-31T00:40:19;13.36;78.58
75368;DHT22;63954;51.948;5.888;2022-10-31T00:42:47;13.35;78.53
75368;DHT22;63954;51.948;5.888;2022-10-31T00:45:14;13.32;78.50
75368;DHT22;63954;51.948;5.888;2022-10-31T00:47:42;13.27;78.57
75368;DHT22;63954;51.948;5.888;2022-10-31T00:50:09;13.26;78.59
75368;DHT22;63954;51.948;5.888;2022-10-31T00:52:37;13.22;78.59
75368;DHT22;63954;51.948;5.888;2022-10-31T00:55:05;13.19;78.59
75368;DHT22;63954;51.948;5.888;2022-10-31T00:57:33;13.16;78.60
75368;DHT22;63954;51.948;5.888;2022-10-31T01:00:02;13.14;78.64
75368;DHT22;63954;51.948;5.888;2022-10-31T01:02:30;13.11;78.62
75368;DHT22;63954;51.948;5.888;2022-10-31T01:04:58;13.06;78.59
75368;DHT22;63954;51.948;5.888;2022-10-31T01:07:25;13.03;78.59
75368;DHT22;63954;51.948;5.888;2022-10-31T01:09:53;12.99;78.59
75368;DHT22;63954;51.948;5.888;2022-10-31T01:12:20;12.95;78.67
75368;DHT22;63954;51.948;5.888;2022-10-31T01:14:47;12.94;78.69
75368;DHT22;63954;51.948;5.888;2022-10-31T01:17:18;12.90;78.71
75368;DHT22;63954;51.948;5.888;2022-10-31T01:19:46;12.89;78.69
75368;DHT22;63954;51.948;5.888;2022-10-31T01:22:15;12.87;78.71
75368;DHT22;63954;51.948;5.888;2022-10-31T01:24:42;12.86;78.83
75368;DHT22;63954;51.948;5.888;2022-10-31T01:27:09;12.87;78.92
75368;DHT22;63954;51.948;5.888;2022-10-31T01:29:37;12.90;78.92
75368;DHT22;63954;51.948;5.888;2022-10-31T01:32:04;12.90;78.82
75368;DHT22;63954;51.948;5.888;2022-10-31T01:34:31;12.89;78.81
75368;DHT22;63954;51.948;5.888;2022-10-31T01:37:01;12.88;78.94
75368;DHT22;63954;51.948;5.888;2022-10-31T01:39:30;12.87;79.03
75368;DHT22;63954;51.948;5.888;2022-10-31T01:41:59;12.86;79.04
75368;DHT22;63954;51.948;5.888;2022-10-31T01:44:50;12.85;78.86
75368;DHT22;63954;51.948;5.888;2022-10-31T01:47:22;12.80;78.87
75368;DHT22;63954;51.948;5.888;2022-10-31T01:49:53;12.75;78.84
75368;DHT22;63954;51.948;5.888;2022-10-31T01:52:23;12.73;78.93
75368;DHT22;63954;51.948;5.888;2022-10-31T01:54:57;12.70;78.99
75368;DHT22;63954;51.948;5.888;2022-10-31T01:57:25;12.67;79.08
75368;DHT22;63954;51.948;5.888;2022-10-31T01:59:56;12.67;79.15
75368;DHT22;63954;51.948;5.888;2022-10-31T02:02:25;12.67;79.17
75368;DHT22;63954;51.948;5.888;2022-10-31T02:04:54;12.70;79.21
75368;DHT22;63954;51.948;5.888;2022-10-31T02:07:25;12.70;79.18
75368;DHT22;63954;51.948;5.888;2022-10-31T02:09:59;12.72;79.19
75368;DHT22;63954;51.948;5.888;2022-10-31T02:12:28;12.73;79.14
75368;DHT22;63954;51.948;5.888;2022-10-31T02:14:59;12.74;79.06
75368;DHT22;63954;51.948;5.888;2022-10-31T02:17:27;12.73;78.99
75368;DHT22;63954;51.948;5.888;2022-10-31T02:20:03;12.73;78.95
75368;DHT22;63954;51.948;5.888;2022-10-31T02:22:40;12.71;78.90
75368;DHT22;63954;51.948;5.888;2022-10-31T02:25:26;12.70;79.00
75368;DHT22;63954;51.948;5.888;2022-10-31T02:28:26;12.66;79.04
75368;DHT22;63954;51.948;5.888;2022-10-31T02:31:19;12.64;79.18
75368;DHT22;63954;51.948;5.888;2022-10-31T02:33:54;12.63;79.12
75368;DHT22;63954;51.948;5.888;2022-10-31T02:36:26;12.62;79.16
75368;DHT22;63954;51.948;5.888;2022-10-31T02:39:00;12.61;79.11
75368;DHT22;63954;51.948;5.888;2022-10-31T02:41:46;12.58;79.14
75368;DHT22;63954;51.948;5.888;2022-10-31T02:44:21;12.56;79.28
75368;DHT22;63954;51.948;5.888;2022-10-31T02:46:53;12.53;79.44
75368;DHT22;63954;51.948;5.888;2022-10-31T02:49:24;12.47;79.53
75368;DHT22;63954;51.948;5.888;2022-10-31T02:51:54;12.42;79.59
75368;DHT22;63954;51.948;5.888;2022-10-31T02:54:24;12.37;79.71
75368;DHT22;63954;51.948;5.888;2022-10-31T02:56:57;12.32;79.81
75368;DHT22;63954;51.948;5.888;2022-10-31T02:59:28;12.29;79.72
75368;DHT22;63954;51.948;5.888;2022-10-31T03:02:09;12.23;79.55
75368;DHT22;63954;51.948;5.888;2022-10-31T03:04:54;12.16;79.59
75368;DHT22;63954;51.948;5.888;2022-10-31T03:07:30;12.11;79.56
75368;DHT22;63954;51.948;5.888;2022-10-31T03:10:04;12.06;79.56
75368;DHT22;63954;51.948;5.888;2022-10-31T03:12:39;12.01;79.53
75368;DHT22;63954;51.948;5.888;2022-10-31T03:15:13;11.94;79.49
75368;DHT22;63954;51.948;5.888;2022-10-31T03:17:50;11.91;79.49
75368;DHT22;63954;51.948;5.888;2022-10-31T03:20:27;11.86;79.59
75368;DHT22;63954;51.948;5.888;2022-10-31T03:22:57;11.82;79.52
75368;DHT22;63954;51.948;5.888;2022-10-31T03:25:26;11.77;79.54
75368;DHT22;63954;51.948;5.888;2022-10-31T03:27:56;11.73;79.50
75368;DHT22;63954;51.948;5.888;2022-10-31T03:30:24;11.69;79.45
75368;DHT22;63954;51.948;5.888;2022-10-31T03:33:00;11.63;79.31
75368;DHT22;63954;51.948;5.888;2022-10-31T03:35:30;11.58;79.28
75368;DHT22;63954;51.948;5.888;2022-10-31T03:38:03;11.54;79.32
75368;DHT22;63954;51.948;5.888;2022-10-31T03:40:34;11.49;79.32
75368;DHT22;63954;51.948;5.888;2022-10-31T03:43:06;11.45;79.43
75368;DHT22;63954;51.948;5.888;2022-10-31T03:45:39;11.43;79.40
75368;DHT22;63954;51.948;5.888;2022-10-31T03:48:09;11.39;79.45
75368;DHT22;63954;51.948;5.888;2022-10-31T03:50:40;11.36;79.49
75368;DHT22;63954;51.948;5.888;2022-10-31T03:53:13;11.31;79.53
75368;DHT22;63954;51.948;5.888;2022-10-31T03:55:47;11.28;79.48
75368;DHT22;63954;51.948;5.888;2022-10-31T03:58:21;11.26;79.54
75368;DHT22;63954;51.948;5.888;2022-10-31T04:00:50;11.23;79.52
75368;DHT22;63954;51.948;5.888;2022-10-31T04:03:23;11.19;79.53
75368;DHT22;63954;51.948;5.888;2022-10-31T04:05:54;11.16;79.60
75368;DHT22;63954;51.948;5.888;2022-10-31T04:08:26;11.14;79.46
75368;DHT22;63954;51.948;5.888;2022-10-31T04:10:56;11.10;79.40
75368;DHT22;63954;51.948;5.888;2022-10-31T04:13:26;11.07;79.43
75368;DHT22;63954;51.948;5.888;2022-10-31T04:16:05;11.04;79.51
75368;DHT22;63954;51.948;5.888;2022-10-31T04:18:35;11.02;79.55
75368;DHT22;63954;51.948;5.888;2022-10-31T04:21:04;11.01;79.56
75368;DHT22;63954;51.948;5.888;2022-10-31T04:23:31;10.98;79.63
75368;DHT22;63954;51.948;5.888;2022-10-31T04:26:01;10.97;79.56
75368;DHT22;63954;51.948;5.888;2022-10-31T04:28:28;10.96;79.59
75368;DHT22;63954;51.948;5.888;2022-10-31T04:30:57;10.96;79.53
75368;DHT22;63954;51.948;5.888;2022-10-31T04:33:24;10.93;79.49
75368;DHT22;63954;51.948;5.888;2022-10-31T04:35:52;10.90;79.46
75368;DHT22;63954;51.948;5.888;2022-10-31T04:38:20;10.88;79.44
75368;DHT22;63954;51.948;5.888;2022-10-31T04:40:48;10.85;79.46
75368;DHT22;63954;51.948;5.888;2022-10-31T04:43:16;10.84;79.44
75368;DHT22;63954;51.948;5.888;2022-10-31T04:45:45;10.82;79.54
75368;DHT22;63954;51.948;5.888;2022-10-31T04:48:13;10.80;79.58
75368;DHT22;63954;51.948;5.888;2022-10-31T04:50:42;10.78;79.59
75368;DHT22;63954;51.948;5.888;2022-10-31T04:53:11;10.78;79.59
75368;DHT22;63954;51.948;5.888;2022-10-31T04:55:57;10.75;79.51
75368;DHT22;63954;51.948;5.888;2022-10-31T04:58:32;10.73;79.51
75368;DHT22;63954;51.948;5.888;2022-10-31T05:00:59;10.71;79.48
75368;DHT22;63954;51.948;5.888;2022-10-31T05:03:26;10.70;79.43
75368;DHT22;63954;51.948;5.888;2022-10-31T05:05:54;10.67;79.42
75368;DHT22;63954;51.948;5.888;2022-10-31T05:08:23;10.65;79.41
75368;DHT22;63954;51.948;5.888;2022-10-31T05:10:51;10.64;79.45
75368;DHT22;63954;51.948;5.888;2022-10-31T05:13:18;10.60;79.52
75368;DHT22;63954;51.948;5.888;2022-10-31T05:16:06;10.59;79.56
75368;DHT22;63954;51.948;5.888;2022-10-31T05:19:05;10.58;79.71
75368;DHT22;63954;51.948;5.888;2022-10-31T05:22:05;10.60;79.82
75368;DHT22;63954;51.948;5.888;2022-10-31T05:24:34;10.60;79.75
75368;DHT22;63954;51.948;5.888;2022-10-31T05:27:01;10.64;79.85
75368;DHT22;63954;51.948;5.888;2022-10-31T05:29:29;10.68;79.81
75368;DHT22;63954;51.948;5.888;2022-10-31T05:32:00;10.74;79.74
75368;DHT22;63954;51.948;5.888;2022-10-31T05:35:03;10.82;79.62
75368;DHT22;63954;51.948;5.888;2022-10-31T05:37:59;10.84;79.43
75368;DHT22;63954;51.948;5.888;2022-10-31T05:40:28;10.85;79.37
75368;DHT22;63954;51.948;5.888;2022-10-31T05:42:56;10.85;79.40
75368;DHT22;63954;51.948;5.888;2022-10-31T05:45:25;10.86;79.43
75368;DHT22;63954;51.948;5.888;2022-10-31T05:47:58;10.87;79.44
75368;DHT22;63954;51.948;5.888;2022-10-31T05:50:48;10.90;79.44
75368;DHT22;63954;51.948;5.888;2022-10-31T05:53:16;10.92;79.52
75368;DHT22;63954;51.948;5.888;2022-10-31T05:55:47;10.96;79.53
75368;DHT22;63954;51.948;5.888;2022-10-31T05:58:18;10.97;79.46
75368;DHT22;63954;51.948;5.888;2022-10-31T06:00:52;10.97;79.43
75368;DHT22;63954;51.948;5.888;2022-10-31T06:03:20;10.98;79.44
75368;DHT22;63954;51.948;5.888;2022-10-31T06:05:50;10.96;79.46
75368;DHT22;63954;51.948;5.888;2022-10-31T06:08:17;10.96;79.44
75368;DHT22;63954;51.948;5.888;2022-10-31T06:10:46;10.94;79.46
75368;DHT22;63954;51.948;5.888;2022-10-31T06:13:17;10.93;79.53
75368;DHT22;63954;51.948;5.888;2022-10-31T06:15:49;10.87;79.62
75368;DHT22;63954;51.948;5.888;2022-10-31T06:18:20;10.88;79.71
75368;DHT22;63954;51.948;5.888;2022-10-31T06:20:50;10.87;79.70
75368;DHT22;63954;51.948;5.888;2022-10-31T06:23:18;10.85;79.72
75368;DHT22;63954;51.948;5.888;2022-10-31T06:25:51;10.83;79.73
75368;DHT22;63954;51.948;5.888;2022-10-31T06:28:18;10.80;79.78
75368;DHT22;63954;51.948;5.888;2022-10-31T06:31:01;10.77;79.75
75368;DHT22;63954;51.948;5.888;2022-10-31T06:33:30;10.73;79.88
75368;DHT22;63954;51.948;5.888;2022-10-31T06:36:01;10.70;80.09
75368;DHT22;63954;51.948;5.888;2022-10-31T06:38:29;10.68;80.17
75368;DHT22;63954;51.948;5.888;2022-10-31T06:41:01;10.68;80.23
75368;DHT22;63954;51.948;5.888;2022-10-31T06:43:35;10.68;80.36
75368;DHT22;63954;51.948;5.888;2022-10-31T06:46:20;10.68;80.53
75368;DHT22;63954;51.948;5.888;2022-10-31T06:49:07;10.68;80.66
75368;DHT22;63954;51.948;5.888;2022-10-31T06:52:03;10.70;80.65
75368;DHT22;63954;51.948;5.888;2022-10-31T06:54:30;10.71;80.72
75368;DHT22;63954;51.948;5.888;2022-10-31T06:56:59;10.73;80.72
75368;DHT22;63954;51.948;5.888;2022-10-31T06:59:28;10.73;80.76
75368;DHT22;63954;51.948;5.888;2022-10-31T07:02:04;10.73;80.76
75368;DHT22;63954;51.948;5.888;2022-10-31T07:04:33;10.72;80.77
75368;DHT22;63954;51.948;5.888;2022-10-31T07:07:00;10.72;80.88
75368;DHT22;63954;51.948;5.888;2022-10-31T07:09:27;10.73;80.88
75368;DHT22;63954;51.948;5.888;2022-10-31T07:11:58;10.72;80.81
75368;DHT22;63954;51.948;5.888;2022-10-31T07:14:25;10.74;80.83
75368;DHT22;63954;51.948;5.888;2022-10-31T07:16:53;10.74;80.91
75368;DHT22;63954;51.948;5.888;2022-10-31T07:19:31;10.78;81.04
75368;DHT22;63954;51.948;5.888;2022-10-31T07:21:58;10.80;81.13
75368;DHT22;63954;51.948;5.888;2022-10-31T07:24:28;10.84;81.33
75368;DHT22;63954;51.948;5.888;2022-10-31T07:27:16;10.90;81.43
75368;DHT22;63954;51.948;5.888;2022-10-31T07:29:45;10.98;81.62
75368;DHT22;63954;51.948;5.888;2022-10-31T07:32:12;11.07;81.98
75368;DHT22;63954;51.948;5.888;2022-10-31T07:34:46;11.12;82.54
75368;DHT22;63954;51.948;5.888;2022-10-31T07:37:21;11.16;82.99
75368;DHT22;63954;51.948;5.888;2022-10-31T07:39:49;11.23;83.06
75368;DHT22;63954;51.948;5.888;2022-10-31T07:42:17;11.29;83.07
75368;DHT22;63954;51.948;5.888;2022-10-31T07:44:45;11.40;83.16
75368;DHT22;63954;51.948;5.888;2022-10-31T07:47:38;11.49;82.97
75368;DHT22;63954;51.948;5.888;2022-10-31T07:50:41;11.57;82.87
75368;DHT22;63954;51.948;5.888;2022-10-31T07:53:26;11.66;82.76
75368;DHT22;63954;51.948;5.888;2022-10-31T07:56:10;11.73;82.91
75368;DHT22;63954;51.948;5.888;2022-10-31T07:58:39;11.81;83.20
75368;DHT22;63954;51.948;5.888;2022-10-31T08:01:06;11.86;84.23
75368;DHT22;63954;51.948;5.888;2022-10-31T08:03:41;11.92;83.44
75368;DHT22;63954;51.948;5.888;2022-10-31T08:06:29;11.98;83.61
75368;DHT22;63954;51.948;5.888;2022-10-31T08:09:23;12.04;83.58
75368;DHT22;63954;51.948;5.888;2022-10-31T08:11:53;12.10;83.65
75368;DHT22;63954;51.948;5.888;2022-10-31T08:14:21;12.17;83.67
75368;DHT22;63954;51.948;5.888;2022-10-31T08:16:52;12.26;83.90
75368;DHT22;63954;51.948;5.888;2022-10-31T08:19:22;12.36;83.94
75368;DHT22;63954;51.948;5.888;2022-10-31T08:21:50;12.47;83.89
75368;DHT22;63954;51.948;5.888;2022-10-31T08:24:18;12.57;83.83
75368;DHT22;63954;51.948;5.888;2022-10-31T08:26:45;12.67;83.58
75368;DHT22;63954;51.948;5.888;2022-10-31T08:29:15;12.74;83.41
75368;DHT22;63954;51.948;5.888;2022-10-31T08:31:44;12.80;83.33
75368;DHT22;63954;51.948;5.888;2022-10-31T08:34:32;12.87;83.30
75368;DHT22;63954;51.948;5.888;2022-10-31T08:37:20;12.92;84.26
75368;DHT22;63954;51.948;5.888;2022-10-31T08:39:52;13.05;82.97
75368;DHT22;63954;51.948;5.888;2022-10-31T08:42:20;13.15;82.68
75368;DHT22;63954;51.948;5.888;2022-10-31T08:44:47;13.25;82.73
75368;DHT22;63954;51.948;5.888;2022-10-31T08:47:16;13.35;82.58
75368;DHT22;63954;51.948;5.888;2022-10-31T08:49:43;13.43;82.60
75368;DHT22;63954;51.948;5.888;2022-10-31T08:52:10;13.53;82.80
75368;DHT22;63954;51.948;5.888;2022-10-31T08:54:40;13.67;82.66
75368;DHT22;63954;51.948;5.888;2022-10-31T08:57:27;13.85;82.21
75368;DHT22;63954;51.948;5.888;2022-10-31T08:59:58;14.01;81.91
75368;DHT22;63954;51.948;5.888;2022-10-31T09:02:45;14.19;81.61
75368;DHT22;63954;51.948;5.888;2022-10-31T09:05:13;14.37;81.32
75368;DHT22;63954;51.948;5.888;2022-10-31T09:07:40;14.54;80.79
75368;DHT22;63954;51.948;5.888;2022-10-31T09:10:08;14.70;80.42
75368;DHT22;63954;51.948;5.888;2022-10-31T09:12:37;14.84;80.11
75368;DHT22;63954;51.948;5.888;2022-10-31T09:15:23;14.99;79.60
75368;DHT22;63954;51.948;5.888;2022-10-31T09:18:01;15.15;79.30
75368;DHT22;63954;51.948;5.888;2022-10-31T09:20:52;15.31;78.83
75368;DHT22;63954;51.948;5.888;2022-10-31T09:23:20;15.41;78.54
75368;DHT22;63954;51.948;5.888;2022-10-31T09:25:50;15.48;78.30
75368;DHT22;63954;51.948;5.888;2022-10-31T09:28:33;15.54;78.11
75368;DHT22;63954;51.948;5.888;2022-10-31T09:31:08;15.59;77.98
75368;DHT22;63954;51.948;5.888;2022-10-31T09:33:48;15.66;77.97
75368;DHT22;63954;51.948;5.888;2022-10-31T09:36:38;15.76;77.95
75368;DHT22;63954;51.948;5.888;2022-10-31T09:39:09;15.84;77.73
75368;DHT22;63954;51.948;5.888;2022-10-31T09:41:51;15.91;77.50
75368;DHT22;63954;51.948;5.888;2022-10-31T09:44:28;16.03;77.47
75368;DHT22;63954;51.948;5.888;2022-10-31T09:47:04;16.13;77.09
75368;DHT22;63954;51.948;5.888;2022-10-31T09:49:58;16.21;76.99
75368;DHT22;63954;51.948;5.888;2022-10-31T09:52:32;16.33;76.86
75368;DHT22;63954;51.948;5.888;2022-10-31T09:55:06;16.39;76.36
75368;DHT22;63954;51.948;5.888;2022-10-31T09:57:40;16.39;76.31
75368;DHT22;63954;51.948;5.888;2022-10-31T10:00:15;16.35;76.29
75368;DHT22;63954;51.948;5.888;2022-10-31T10:02:48;16.35;76.41
75368;DHT22;63954;51.948;5.888;2022-10-31T10:05:24;16.34;76.42
75368;DHT22;63954;51.948;5.888;2022-10-31T10:08:03;16.34;76.41
75368;DHT22;63954;51.948;5.888;2022-10-31T10:10:55;16.39;76.32
75368;DHT22;63954;51.948;5.888;2022-10-31T10:13:56;16.49;76.17
75368;DHT22;63954;51.948;5.888;2022-10-31T10:16:37;16.62;75.97
75368;DHT22;63954;51.948;5.888;2022-10-31T10:19:21;16.74;75.44
75368;DHT22;63954;51.948;5.888;2022-10-31T10:21:58;16.78;74.73
75368;DHT22;63954;51.948;5.888;2022-10-31T10:24:38;16.80;75.36
75368;DHT22;63954;51.948;5.888;2022-10-31T10:27:16;16.78;74.77
75368;DHT22;63954;51.948;5.888;2022-10-31T10:29:50;16.79;75.38
75368;DHT22;63954;51.948;5.888;2022-10-31T10:32:23;16.77;75.15
75368;DHT22;63954;51.948;5.888;2022-10-31T10:34:56;16.76;75.18
75368;DHT22;63954;51.948;5.888;2022-10-31T10:37:31;16.78;74.86
75368;DHT22;63954;51.948;5.888;2022-10-31T10:40:07;16.76;74.67
75368;DHT22;63954;51.948;5.888;2022-10-31T10:42:37;16.73;74.65
75368;DHT22;63954;51.948;5.888;2022-10-31T10:45:22;16.71;74.56
75368;DHT22;63954;51.948;5.888;2022-10-31T10:48:15;16.70;74.59
75368;DHT22;63954;51.948;5.888;2022-10-31T10:50:47;16.77;74.37
75368;DHT22;63954;51.948;5.888;2022-10-31T10:53:29;16.84;73.98
75368;DHT22;63954;51.948;5.888;2022-10-31T10:56:11;16.90;73.69
75368;DHT22;63954;51.948;5.888;2022-10-31T10:58:41;17.00;73.53
75368;DHT22;63954;51.948;5.888;2022-10-31T11:01:10;17.07;72.77
75368;DHT22;63954;51.948;5.888;2022-10-31T11:03:38;17.14;73.03
75368;DHT22;63954;51.948;5.888;2022-10-31T11:06:18;17.14;72.22
75368;DHT22;63954;51.948;5.888;2022-10-31T11:08:49;17.08;72.77
75368;DHT22;63954;51.948;5.888;2022-10-31T11:11:23;17.06;72.78
75368;DHT22;63954;51.948;5.888;2022-10-31T11:13:56;17.09;73.10
75368;DHT22;63954;51.948;5.888;2022-10-31T11:16:30;17.14;73.04
75368;DHT22;63954;51.948;5.888;2022-10-31T11:19:07;17.13;72.58
75368;DHT22;63954;51.948;5.888;2022-10-31T11:21:35;17.16;72.45
75368;DHT22;63954;51.948;5.888;2022-10-31T11:24:08;17.19;72.19
75368;DHT22;63954;51.948;5.888;2022-10-31T11:26:40;17.20;72.02
75368;DHT22;63954;51.948;5.888;2022-10-31T11:29:13;17.23;71.90
75368;DHT22;63954;51.948;5.888;2022-10-31T11:31:41;17.29;72.20
75368;DHT22;63954;51.948;5.888;2022-10-31T11:34:14;17.33;72.09
75368;DHT22;63954;51.948;5.888;2022-10-31T11:36:44;17.36;72.22
75368;DHT22;63954;51.948;5.888;2022-10-31T11:39:20;17.43;71.98
75368;DHT22;63954;51.948;5.888;2022-10-31T11:41:48;17.46;71.77
75368;DHT22;63954;51.948;5.888;2022-10-31T11:44:18;17.51;71.67
75368;DHT22;63954;51.948;5.888;2022-10-31T11:46:48;17.59;71.60
75368;DHT22;63954;51.948;5.888;2022-10-31T11:49:17;17.69;71.34
75368;DHT22;63954;51.948;5.888;2022-10-31T11:51:49;17.77;71.10
75368;DHT22;63954;51.948;5.888;2022-10-31T11:54:23;17.80;71.13
75368;DHT22;63954;51.948;5.888;2022-10-31T11:56:51;17.80;71.38
75368;DHT22;63954;51.948;5.888;2022-10-31T11:59:25;17.82;71.37
75368;DHT22;63954;51.948;5.888;2022-10-31T12:01:54;17.90;71.39
75368;DHT22;63954;51.948;5.888;2022-10-31T12:04:29;17.95;70.81
75368;DHT22;63954;51.948;5.888;2022-10-31T12:06:58;17.98;70.68
75368;DHT22;63954;51.948;5.888;2022-10-31T12:09:28;18.00;70.57
75368;DHT22;63954;51.948;5.888;2022-10-31T12:15:09;18.13;69.71
75368;DHT22;63954;51.948;5.888;2022-10-31T12:17:44;18.20;69.61
75368;DHT22;63954;51.948;5.888;2022-10-31T12:20:21;18.15;69.91
75368;DHT22;63954;51.948;5.888;2022-10-31T12:22:58;18.20;69.75
75368;DHT22;63954;51.948;5.888;2022-10-31T12:25:39;18.14;69.94
75368;DHT22;63954;51.948;5.888;2022-10-31T12:28:33;18.05;70.19
75368;DHT22;63954;51.948;5.888;2022-10-31T12:31:12;18.00;70.74
75368;DHT22;63954;51.948;5.888;2022-10-31T12:33:50;17.98;70.85
75368;DHT22;63954;51.948;5.888;2022-10-31T12:36:47;17.96;71.08
75368;DHT22;63954;51.948;5.888;2022-10-31T12:39:34;17.95;70.99
75368;DHT22;63954;51.948;5.888;2022-10-31T12:42:14;18.03;71.32
75368;DHT22;63954;51.948;5.888;2022-10-31T12:44:57;18.13;71.10
75368;DHT22;63954;51.948;5.888;2022-10-31T12:47:41;18.21;70.84
75368;DHT22;63954;51.948;5.888;2022-10-31T12:50:31;18.27;70.57
75368;DHT22;63954;51.948;5.888;2022-10-31T12:53:09;18.34;70.18
75368;DHT22;63954;51.948;5.888;2022-10-31T12:55:56;18.38;69.71
75368;DHT22;63954;51.948;5.888;2022-10-31T12:58:30;18.44;69.74
75368;DHT22;63954;51.948;5.888;2022-10-31T13:01:06;18.48;69.67
75368;DHT22;63954;51.948;5.888;2022-10-31T13:03:41;18.44;69.31
75368;DHT22;63954;51.948;5.888;2022-10-31T13:06:13;18.41;69.96
75368;DHT22;63954;51.948;5.888;2022-10-31T13:08:48;18.41;69.82
75368;DHT22;63954;51.948;5.888;2022-10-31T13:11:20;18.36;69.77
75368;DHT22;63954;51.948;5.888;2022-10-31T13:13:58;18.37;69.88
75368;DHT22;63954;51.948;5.888;2022-10-31T13:16:31;18.41;69.96
75368;DHT22;63954;51.948;5.888;2022-10-31T13:19:04;18.43;70.03
75368;DHT22;63954;51.948;5.888;2022-10-31T13:21:37;18.41;69.99
75368;DHT22;63954;51.948;5.888;2022-10-31T13:24:10;18.38;70.09
75368;DHT22;63954;51.948;5.888;2022-10-31T13:26:43;18.34;70.18
75368;DHT22;63954;51.948;5.888;2022-10-31T13:29:18;18.27;70.10
75368;DHT22;63954;51.948;5.888;2022-10-31T13:31:47;18.23;70.25
75368;DHT22;63954;51.948;5.888;2022-10-31T13:34:23;18.20;70.37
75368;DHT22;63954;51.948;5.888;2022-10-31T13:37:01;18.19;70.29
75368;DHT22;63954;51.948;5.888;2022-10-31T13:39:40;18.18;70.23
75368;DHT22;63954;51.948;5.888;2022-10-31T13:42:14;18.21;69.74
75368;DHT22;63954;51.948;5.888;2022-10-31T13:44:45;18.26;69.74
75368;DHT22;63954;51.948;5.888;2022-10-31T13:47:23;18.33;69.61
75368;DHT22;63954;51.948;5.888;2022-10-31T13:49:51;18.40;69.60
75368;DHT22;63954;51.948;5.888;2022-10-31T13:52:24;18.44;69.19
75368;DHT22;63954;51.948;5.888;2022-10-31T13:54:53;18.49;68.87
75368;DHT22;63954;51.948;5.888;2022-10-31T13:57:31;18.47;68.26
75368;DHT22;63954;51.948;5.888;2022-10-31T14:00:03;18.49;68.71
75368;DHT22;63954;51.948;5.888;2022-10-31T14:02:45;18.50;68.37
75368;DHT22;63954;51.948;5.888;2022-10-31T14:05:22;18.51;68.15
75368;DHT22;63954;51.948;5.888;2022-10-31T14:07:51;18.48;68.43
75368;DHT22;63954;51.948;5.888;2022-10-31T14:10:22;18.49;68.24
75368;DHT22;63954;51.948;5.888;2022-10-31T14:12:52;18.47;68.59
75368;DHT22;63954;51.948;5.888;2022-10-31T14:15:23;18.48;68.61
75368;DHT22;63954;51.948;5.888;2022-10-31T14:17:53;18.46;68.58
75368;DHT22;63954;51.948;5.888;2022-10-31T14:20:39;18.44;68.66
75368;DHT22;63954;51.948;5.888;2022-10-31T14:23:12;18.44;68.65
75368;DHT22;63954;51.948;5.888;2022-10-31T14:25:40;18.43;68.81
75368;DHT22;63954;51.948;5.888;2022-10-31T14:28:20;18.42;68.57
75368;DHT22;63954;51.948;5.888;2022-10-31T14:30:54;18.38;68.74
75368;DHT22;63954;51.948;5.888;2022-10-31T14:33:24;18.36;68.98
75368;DHT22;63954;51.948;5.888;2022-10-31T14:35:57;18.33;68.53
75368;DHT22;63954;51.948;5.888;2022-10-31T14:38:41;18.32;68.80
75368;DHT22;63954;51.948;5.888;2022-10-31T14:41:23;18.28;68.87
75368;DHT22;63954;51.948;5.888;2022-10-31T14:44:10;18.22;69.09
75368;DHT22;63954;51.948;5.888;2022-10-31T14:46:49;18.17;69.24
75368;DHT22;63954;51.948;5.888;2022-10-31T14:49:31;18.13;69.29
75368;DHT22;63954;51.948;5.888;2022-10-31T14:52:01;18.08;69.61
75368;DHT22;63954;51.948;5.888;2022-10-31T14:54:32;18.06;69.70
75368;DHT22;63954;51.948;5.888;2022-10-31T14:57:04;18.04;69.87
75368;DHT22;63954;51.948;5.888;2022-10-31T14:59:35;18.03;70.00
75368;DHT22;63954;51.948;5.888;2022-10-31T15:02:11;17.99;70.10
75368;DHT22;63954;51.948;5.888;2022-10-31T15:04:40;17.97;70.31
75368;DHT22;63954;51.948;5.888;2022-10-31T15:07:12;17.93;70.56
75368;DHT22;63954;51.948;5.888;2022-10-31T15:09:41;17.89;70.86
75368;DHT22;63954;51.948;5.888;2022-10-31T15:12:24;17.82;71.10
75368;DHT22;63954;51.948;5.888;2022-10-31T15:14:51;17.75;71.22
75368;DHT22;63954;51.948;5.888;2022-10-31T15:17:20;17.72;71.38
75368;DHT22;63954;51.948;5.888;2022-10-31T15:19:51;17.66;71.59
75368;DHT22;63954;51.948;5.888;2022-10-31T15:22:22;17.62;71.77
75368;DHT22;63954;51.948;5.888;2022-10-31T15:24:50;17.55;71.96
75368;DHT22;63954;51.948;5.888;2022-10-31T15:27:22;17.52;72.10
75368;DHT22;63954;51.948;5.888;2022-10-31T15:29:52;17.47;72.32
75368;DHT22;63954;51.948;5.888;2022-10-31T15:32:22;17.44;72.40
75368;DHT22;63954;51.948;5.888;2022-10-31T15:34:51;17.41;72.54
75368;DHT22;63954;51.948;5.888;2022-10-31T15:37:19;17.36;72.76
75368;DHT22;63954;51.948;5.888;2022-10-31T15:39:47;17.34;72.73
75368;DHT22;63954;51.948;5.888;2022-10-31T15:42:19;17.32;72.86
75368;DHT22;63954;51.948;5.888;2022-10-31T15:44:50;17.28;73.00
75368;DHT22;63954;51.948;5.888;2022-10-31T15:47:22;17.26;73.12
75368;DHT22;63954;51.948;5.888;2022-10-31T15:49:52;17.24;73.19
75368;DHT22;63954;51.948;5.888;2022-10-31T15:52:28;17.21;73.26
75368;DHT22;63954;51.948;5.888;2022-10-31T15:54:59;17.19;73.39
75368;DHT22;63954;51.948;5.888;2022-10-31T15:57:27;17.16;73.53
75368;DHT22;63954;51.948;5.888;2022-10-31T15:59:56;17.13;73.67
75368;DHT22;63954;51.948;5.888;2022-10-31T16:02:27;17.08;73.89
75368;DHT22;63954;51.948;5.888;2022-10-31T16:04:56;17.05;73.96
75368;DHT22;63954;51.948;5.888;2022-10-31T16:07:25;16.98;74.17
75368;DHT22;63954;51.948;5.888;2022-10-31T16:09:55;16.90;74.43
75368;DHT22;63954;51.948;5.888;2022-10-31T16:12:30;16.85;74.67